Ballincollig, Ireland
Current Conditions -  °F | °C
As of 8:30 AM on Friday 24 Oct 2014 (Local Time) from EICK Reporting Station
Broken Clouds Broken Clouds  
Wind Chill: 45°   Ceiling: 4200
Heat Index: 48°   Visibility: 4mi
Dew Point: 48°   Wind: 7mph
Humidity: 100%   Direction: 250°WSW
Pressure: 29.91"   Gusts: NA
Location:  51.89°N, 8.59°W
Report Text: EICK 240830Z 25006KT 6000 SCT024 BKN042 09/09 Q1013 NOSIG
Loading
Personal Weather Stations






























Interactive Weather Map New forecast layout! Learn more

10-Day Weather Forecast

Advertisements
Track Severe Weather on mobile